createdAt,value
2019-03-23T00:00:18.329Z,8.63
2019-03-23T00:02:47.891Z,8.64
2019-03-23T00:05:17.472Z,8.67
2019-03-23T00:07:48.881Z,8.72
2019-03-23T00:10:18.319Z,8.76
2019-03-23T00:12:47.897Z,8.79
2019-03-23T00:15:17.490Z,8.77
2019-03-23T00:17:46.932Z,8.77
2019-03-23T00:20:19.665Z,8.84
2019-03-23T00:22:51.143Z,8.85
2019-03-23T00:25:20.323Z,8.88
2019-03-23T00:27:49.925Z,8.87
2019-03-23T00:30:19.425Z,8.86
2019-03-23T00:32:48.943Z,8.87
2019-03-23T00:35:18.433Z,8.88
2019-03-23T00:37:49.401Z,8.86
2019-03-23T00:40:18.889Z,8.85
2019-03-23T00:42:48.415Z,8.81
2019-03-23T00:45:18.476Z,8.75
2019-03-23T00:47:49.571Z,8.75
2019-03-23T00:50:19.010Z,8.73
2019-03-23T00:52:57.459Z,8.74
2019-03-23T00:55:26.913Z,8.76
2019-03-23T00:57:56.583Z,8.76
2019-03-23T01:00:26.033Z,8.75
2019-03-23T01:02:55.475Z,8.73
2019-03-23T01:05:24.923Z,8.70
2019-03-23T01:07:54.419Z,8.66
2019-03-23T01:10:23.957Z,8.55
2019-03-23T01:12:53.387Z,8.41
2019-03-23T01:15:22.907Z,8.30
2019-03-23T01:17:52.441Z,8.14
2019-03-23T01:20:21.867Z,8.02
2019-03-23T01:22:51.421Z,7.95
2019-03-23T01:25:20.989Z,7.91
2019-03-23T01:27:50.452Z,7.92
2019-03-23T01:30:20.028Z,7.92
2019-03-23T01:32:49.468Z,7.87
2019-03-23T01:35:18.904Z,7.87
2019-03-23T01:37:48.321Z,7.89
2019-03-23T01:40:17.762Z,7.95
2019-03-23T01:42:47.201Z,7.98
2019-03-23T01:45:16.989Z,7.98
2019-03-23T01:47:46.499Z,7.99
2019-03-23T01:50:18.851Z,8.04
2019-03-23T01:52:48.293Z,8.14
2019-03-23T01:55:17.716Z,8.19
2019-03-23T01:57:47.162Z,8.17
2019-03-23T02:00:16.721Z,8.17
2019-03-23T02:02:47.610Z,8.13
2019-03-23T02:05:18.286Z,8.09
2019-03-23T02:07:47.806Z,8.10
2019-03-23T02:10:18.336Z,8.08
2019-03-23T02:12:47.914Z,8.08
2019-03-23T02:15:17.468Z,8.06
2019-03-23T02:17:46.894Z,8.10
2019-03-23T02:20:16.772Z,8.10
2019-03-23T02:22:46.192Z,8.11
2019-03-23T02:25:15.664Z,8.08
2019-03-23T02:27:45.058Z,8.04
2019-03-23T02:30:14.769Z,8.00
2019-03-23T02:32:44.182Z,7.99
2019-03-23T02:35:14.331Z,7.99
2019-03-23T02:37:43.744Z,8.00
2019-03-23T02:40:13.346Z,8.02
2019-03-23T02:42:42.758Z,7.99
2019-03-23T02:45:13.145Z,7.95
2019-03-23T02:47:42.662Z,7.91
2019-03-23T02:50:12.255Z,7.80
2019-03-23T02:52:41.662Z,7.57
2019-03-23T02:55:11.650Z,7.48
2019-03-23T02:57:41.071Z,7.42
2019-03-23T03:00:13.199Z,7.42
2019-03-23T03:02:42.776Z,7.43
2019-03-23T03:05:12.435Z,7.43
2019-03-23T03:07:43.611Z,7.41
2019-03-23T03:10:16.131Z,7.39
2019-03-23T03:12:45.569Z,7.41
2019-03-23T03:15:15.133Z,7.41
2019-03-23T03:17:44.552Z,7.37
2019-03-23T03:20:14.132Z,7.38
2019-03-23T03:22:43.557Z,7.50
2019-03-23T03:25:13.238Z,7.53
2019-03-23T03:27:42.653Z,7.55
2019-03-23T03:30:12.585Z,7.57
2019-03-23T03:32:41.982Z,7.53
2019-03-23T03:35:11.855Z,7.48
2019-03-23T03:37:55.399Z,7.43
2019-03-23T03:40:12.635Z,7.36
2019-03-23T03:42:42.175Z,7.26
2019-03-23T03:45:14.651Z,7.20
2019-03-23T03:47:44.066Z,7.13
2019-03-23T03:50:13.595Z,7.11
2019-03-23T03:52:43.035Z,7.13
2019-03-23T03:55:12.587Z,7.18
2019-03-23T03:57:42.042Z,7.17
2019-03-23T04:00:11.909Z,7.19
2019-03-23T04:02:41.433Z,7.21
2019-03-23T04:05:10.991Z,7.23
2019-03-23T04:07:41.083Z,7.31
2019-03-23T04:10:11.173Z,7.30
2019-03-23T04:12:40.735Z,7.34
2019-03-23T04:15:10.931Z,7.38
2019-03-23T04:17:40.408Z,7.41
2019-03-23T04:20:11.276Z,7.42
2019-03-23T04:22:40.694Z,7.56
2019-03-23T04:25:11.230Z,7.74
2019-03-23T04:27:40.648Z,7.86
2019-03-23T04:30:11.689Z,7.98
2019-03-23T04:32:41.182Z,8.00
2019-03-23T04:35:10.858Z,7.99
2019-03-23T04:37:40.302Z,8.01
2019-03-23T04:40:12.411Z,7.93
2019-03-23T04:42:41.982Z,7.92
2019-03-23T04:45:12.294Z,7.90
2019-03-23T04:47:41.713Z,7.93
2019-03-23T04:50:12.796Z,7.92
2019-03-23T04:52:42.320Z,7.93
2019-03-23T04:55:12.993Z,7.99
2019-03-23T04:57:42.569Z,7.98
2019-03-23T05:00:15.042Z,7.97
2019-03-23T05:02:44.599Z,7.92
2019-03-23T05:05:14.187Z,7.96
2019-03-23T05:07:43.634Z,8.00
2019-03-23T05:10:13.399Z,7.97
2019-03-23T05:12:42.856Z,7.99
2019-03-23T05:15:12.542Z,7.93
2019-03-23T05:17:41.975Z,7.87
2019-03-23T05:20:13.404Z,7.87
2019-03-23T05:22:42.831Z,7.90
2019-03-23T05:25:15.332Z,7.88
2019-03-23T05:27:44.752Z,7.84
2019-03-23T05:30:15.285Z,7.92
2019-03-23T05:32:44.712Z,7.91
2019-03-23T05:35:14.234Z,7.94
2019-03-23T05:37:44.629Z,7.94
2019-03-23T05:40:14.227Z,8.00
2019-03-23T05:42:43.660Z,8.00
2019-03-23T05:45:13.247Z,7.98
2019-03-23T05:47:42.701Z,7.96
2019-03-23T05:50:12.365Z,8.02
2019-03-23T05:52:41.815Z,7.95
2019-03-23T05:55:11.483Z,7.88
2019-03-23T05:57:40.928Z,7.88
2019-03-23T06:00:12.732Z,7.91
2019-03-23T06:02:42.190Z,7.87
2019-03-23T06:05:11.688Z,7.90
2019-03-23T06:07:41.141Z,7.90
2019-03-23T06:10:11.008Z,7.87
2019-03-23T06:12:40.478Z,7.85
2019-03-23T06:15:10.141Z,7.84
2019-03-23T06:17:39.593Z,7.80
2019-03-23T06:20:10.075Z,7.73
2019-03-23T06:22:39.496Z,7.59
2019-03-23T06:25:09.074Z,7.54
2019-03-23T06:27:38.519Z,7.43
2019-03-23T06:30:11.189Z,7.40
2019-03-23T06:32:40.628Z,7.33
2019-03-23T06:35:10.194Z,7.32
2019-03-23T06:37:39.707Z,7.37
2019-03-23T06:40:11.691Z,7.44
2019-03-23T06:42:41.134Z,7.51
2019-03-23T06:45:11.578Z,7.42
2019-03-23T06:47:41.014Z,7.49
2019-03-23T06:50:11.581Z,7.48
2019-03-23T06:52:41.093Z,7.49
2019-03-23T06:55:10.973Z,7.44
2019-03-23T06:57:40.396Z,7.43
2019-03-23T07:00:17.029Z,7.37
2019-03-23T07:02:46.492Z,7.35
2019-03-23T07:05:15.917Z,7.27
2019-03-23T07:07:45.367Z,7.28
2019-03-23T07:10:15.132Z,7.15
2019-03-23T07:12:44.652Z,7.16
2019-03-23T07:15:20.043Z,7.16
2019-03-23T07:17:46.085Z,7.20
2019-03-23T07:20:15.653Z,7.30
2019-03-23T07:22:45.175Z,7.32
2019-03-23T07:25:14.762Z,7.27
2019-03-23T07:27:44.188Z,7.29
2019-03-23T07:30:15.692Z,7.33
2019-03-23T07:32:45.345Z,7.31
2019-03-23T07:35:15.337Z,7.25
2019-03-23T07:37:44.837Z,7.32
2019-03-23T07:40:14.649Z,7.38
2019-03-23T07:42:44.089Z,7.49
2019-03-23T07:45:17.099Z,7.49
2019-03-23T07:47:46.550Z,7.61
2019-03-23T07:50:16.145Z,7.53
2019-03-23T07:52:45.659Z,7.56
2019-03-23T07:55:16.240Z,7.59
2019-03-23T07:57:45.809Z,7.52
2019-03-23T08:00:22.714Z,7.55
2019-03-23T08:02:52.149Z,7.56
2019-03-23T08:05:21.672Z,7.66
2019-03-23T08:07:51.100Z,7.51
2019-03-23T08:10:31.389Z,7.46
2019-03-23T08:13:01.345Z,7.56
2019-03-23T08:15:31.055Z,7.47
2019-03-23T08:18:00.637Z,7.61
2019-03-23T08:20:30.180Z,7.72
2019-03-23T08:22:59.674Z,7.76
2019-03-23T08:25:29.202Z,7.83
2019-03-23T08:27:58.699Z,7.93
2019-03-23T08:30:28.151Z,7.93
2019-03-23T08:32:57.654Z,7.94
2019-03-23T08:35:27.113Z,7.90
2019-03-23T08:37:56.538Z,7.75
2019-03-23T08:40:25.994Z,7.68
2019-03-23T08:42:55.422Z,7.70
2019-03-23T08:45:24.954Z,7.67
2019-03-23T08:47:54.470Z,7.64
2019-03-23T08:50:23.926Z,7.74
2019-03-23T08:52:53.388Z,7.84
2019-03-23T08:55:22.974Z,7.82
2019-03-23T08:57:52.437Z,7.84
2019-03-23T09:00:21.925Z,7.88
2019-03-23T09:02:51.442Z,7.95
2019-03-23T09:05:20.872Z,7.96
2019-03-23T09:07:52.539Z,8.04
2019-03-23T09:10:21.538Z,8.11
2019-03-23T09:12:51.171Z,8.22
2019-03-23T09:15:20.605Z,8.16
2019-03-23T09:17:50.098Z,8.17
2019-03-23T09:20:19.606Z,8.15
2019-03-23T09:22:49.035Z,8.05
2019-03-23T09:25:18.578Z,8.03
2019-03-23T09:27:48.182Z,7.92
2019-03-23T09:30:17.767Z,7.87
2019-03-23T09:32:47.196Z,7.85
2019-03-23T09:35:16.654Z,7.93
2019-03-23T09:37:46.175Z,7.89
2019-03-23T09:40:15.696Z,7.92
2019-03-23T09:42:45.308Z,8.03
2019-03-23T09:45:14.892Z,8.13
2019-03-23T09:47:44.485Z,8.06
2019-03-23T09:50:14.011Z,8.05
2019-03-23T09:52:43.512Z,8.06
2019-03-23T09:55:12.942Z,8.10
2019-03-23T09:57:42.453Z,8.15
2019-03-23T10:00:13.223Z,8.17
2019-03-23T10:02:42.676Z,8.20
2019-03-23T10:05:12.284Z,8.17
2019-03-23T10:07:41.786Z,8.28
2019-03-23T10:10:21.219Z,8.39
2019-03-23T10:12:43.589Z,8.43
2019-03-23T10:15:13.191Z,8.48
2019-03-23T10:17:42.641Z,8.55
2019-03-23T10:20:12.164Z,8.65
2019-03-23T10:22:42.487Z,8.56
2019-03-23T10:25:12.098Z,8.63
2019-03-23T10:27:41.534Z,8.58
2019-03-23T10:30:11.930Z,8.59
2019-03-23T10:32:41.369Z,8.70
2019-03-23T10:35:11.171Z,8.75
2019-03-23T10:37:40.711Z,8.77
2019-03-23T10:40:11.482Z,8.94
2019-03-23T10:42:43.241Z,9.05
2019-03-23T10:45:12.477Z,9.07
2019-03-23T10:47:42.109Z,9.11
2019-03-23T10:50:11.738Z,9.24
2019-03-23T10:52:42.246Z,9.38
2019-03-23T10:55:11.751Z,9.32
2019-03-23T10:57:41.218Z,9.41
2019-03-23T11:00:13.387Z,9.52
2019-03-23T11:02:43.192Z,9.65
2019-03-23T11:05:13.004Z,9.67
2019-03-23T11:07:42.428Z,9.75
2019-03-23T11:10:15.123Z,9.85
2019-03-23T11:12:46.031Z,9.97
2019-03-23T11:15:15.509Z,10.05
2019-03-23T11:17:44.933Z,10.09
2019-03-23T11:20:15.145Z,10.08
2019-03-23T11:22:44.728Z,10.04
2019-03-23T11:25:14.398Z,10.14
2019-03-23T11:27:43.942Z,10.17
2019-03-23T11:30:14.208Z,10.34
2019-03-23T11:32:43.728Z,10.49
2019-03-23T11:35:13.452Z,10.53
2019-03-23T11:37:43.343Z,10.66
2019-03-23T11:40:13.020Z,10.74
2019-03-23T11:42:49.657Z,10.88
2019-03-23T11:45:14.159Z,11.01
2019-03-23T11:47:44.753Z,11.06
2019-03-23T11:50:14.363Z,11.27
2019-03-23T11:52:43.821Z,11.24
2019-03-23T11:55:13.421Z,11.24
2019-03-23T11:57:42.938Z,11.23
2019-03-23T12:00:15.001Z,11.30
2019-03-23T12:02:45.591Z,11.38
2019-03-23T12:05:15.167Z,11.53
2019-03-23T12:07:44.615Z,11.53
2019-03-23T12:10:15.363Z,11.78
2019-03-23T12:12:44.951Z,12.11
2019-03-23T12:15:14.985Z,12.11
2019-03-23T12:17:44.506Z,12.22
2019-03-23T12:20:14.167Z,12.26
2019-03-23T12:22:43.611Z,12.13
2019-03-23T12:25:13.478Z,12.11
2019-03-23T12:27:42.945Z,12.14
2019-03-23T12:30:15.515Z,12.11
2019-03-23T12:32:45.041Z,12.22
2019-03-23T12:35:14.815Z,12.34
2019-03-23T12:37:44.423Z,12.31
2019-03-23T12:40:14.108Z,12.26
2019-03-23T12:42:43.629Z,12.15
2019-03-23T12:45:13.788Z,12.29
2019-03-23T12:47:44.312Z,12.32
2019-03-23T12:50:14.916Z,12.36
2019-03-23T12:52:44.455Z,12.25
2019-03-23T12:55:13.976Z,12.47
2019-03-23T12:57:43.466Z,12.67
2019-03-23T13:00:15.888Z,12.87
2019-03-23T13:02:45.553Z,12.99
2019-03-23T13:05:15.055Z,12.80
2019-03-23T13:07:44.589Z,12.77
2019-03-23T13:10:14.750Z,12.91
2019-03-23T13:12:44.423Z,13.07
2019-03-23T13:15:15.925Z,13.14
2019-03-23T13:17:45.448Z,13.36
2019-03-23T13:20:15.109Z,13.43
2019-03-23T13:22:44.595Z,13.52
2019-03-23T13:25:14.047Z,13.58
2019-03-23T13:27:43.559Z,13.52
2019-03-23T13:30:17.666Z,13.58
2019-03-23T13:32:47.107Z,13.46
2019-03-23T13:35:16.632Z,13.43
2019-03-23T13:37:46.149Z,13.48
2019-03-23T13:40:15.678Z,13.38
2019-03-23T13:42:45.115Z,13.45
2019-03-23T13:45:14.816Z,13.38
2019-03-23T13:47:44.461Z,13.48
2019-03-23T13:50:15.490Z,13.35
2019-03-23T13:52:44.921Z,13.44
2019-03-23T13:55:26.762Z,13.56
2019-03-23T13:57:56.278Z,13.63
2019-03-23T14:00:25.796Z,13.59
2019-03-23T14:02:55.247Z,13.56
2019-03-23T14:05:24.840Z,13.60
2019-03-23T14:07:54.280Z,13.46
2019-03-23T14:10:23.736Z,13.42
2019-03-23T14:12:53.194Z,13.39
2019-03-23T14:15:22.708Z,13.39
2019-03-23T14:17:52.205Z,13.28
2019-03-23T14:20:21.724Z,13.23
2019-03-23T14:22:51.148Z,13.12
2019-03-23T14:25:20.695Z,13.12
2019-03-23T14:27:50.109Z,13.13
2019-03-23T14:30:19.644Z,12.95
2019-03-23T14:32:49.075Z,12.81
2019-03-23T14:35:18.534Z,12.81
2019-03-23T14:37:47.963Z,12.75
2019-03-23T14:40:17.413Z,12.71
2019-03-23T14:42:46.922Z,12.69
2019-03-23T14:45:18.122Z,12.65
2019-03-23T14:47:47.654Z,12.60
2019-03-23T14:50:17.167Z,12.51
2019-03-23T14:52:46.791Z,12.39
2019-03-23T14:55:16.227Z,12.34
2019-03-23T14:57:45.843Z,12.41
2019-03-23T15:00:19.401Z,12.39
2019-03-23T15:02:48.862Z,12.34
2019-03-23T15:05:18.294Z,12.31
2019-03-23T15:07:47.747Z,12.26
2019-03-23T15:10:17.364Z,12.25
2019-03-23T15:12:47.692Z,12.22
2019-03-23T15:15:17.136Z,12.21
2019-03-23T15:17:48.968Z,12.18
2019-03-23T15:20:17.849Z,12.23
2019-03-23T15:22:49.642Z,12.22
2019-03-23T15:25:22.157Z,12.12
2019-03-23T15:27:51.595Z,12.08
2019-03-23T15:30:21.051Z,11.99
2019-03-23T15:32:50.483Z,12.05
2019-03-23T15:35:20.067Z,12.05
2019-03-23T15:37:49.493Z,12.02
2019-03-23T15:40:19.020Z,11.94
2019-03-23T15:42:48.519Z,11.92
2019-03-23T15:45:17.982Z,11.92
2019-03-23T15:47:49.465Z,11.91
2019-03-23T15:50:21.717Z,11.89
2019-03-23T15:52:50.237Z,11.86
2019-03-23T15:55:19.829Z,11.79
2019-03-23T15:57:49.266Z,11.82
2019-03-23T16:00:19.150Z,11.77
2019-03-23T16:02:48.588Z,11.65
2019-03-23T16:05:18.136Z,11.66
2019-03-23T16:07:47.647Z,11.57
2019-03-23T16:10:17.222Z,11.63
2019-03-23T16:12:49.522Z,11.61
2019-03-23T16:15:19.106Z,11.59
2019-03-23T16:17:48.630Z,11.69
2019-03-23T16:20:18.205Z,11.63
2019-03-23T16:22:47.665Z,11.58
2019-03-23T16:25:17.081Z,11.61
2019-03-23T16:27:46.615Z,11.57
2019-03-23T16:30:19.113Z,11.59
2019-03-23T16:32:49.626Z,11.51
2019-03-23T16:35:19.087Z,11.49
2019-03-23T16:37:50.163Z,11.41
2019-03-23T16:40:19.705Z,11.41
2019-03-23T16:42:49.129Z,11.35
2019-03-23T16:45:18.666Z,11.35
2019-03-23T16:47:48.094Z,11.40
2019-03-23T16:50:17.695Z,11.33
2019-03-23T16:52:47.125Z,11.27
2019-03-23T16:55:18.286Z,11.27
2019-03-23T16:57:47.806Z,11.28
2019-03-23T17:00:20.349Z,11.18
2019-03-23T17:02:49.847Z,11.14
2019-03-23T17:05:19.300Z,11.14
2019-03-23T17:07:48.809Z,11.04
2019-03-23T17:10:18.350Z,10.92
2019-03-23T17:12:55.164Z,10.92
2019-03-23T17:15:19.133Z,10.69
2019-03-23T17:17:48.645Z,10.48
2019-03-23T17:20:18.079Z,10.46
2019-03-23T17:22:48.615Z,10.44
2019-03-23T17:25:18.047Z,10.41
2019-03-23T17:27:47.523Z,10.36
2019-03-23T17:30:17.221Z,10.29
2019-03-23T17:32:48.197Z,10.29
2019-03-23T17:35:17.722Z,10.25
2019-03-23T17:37:47.183Z,10.21
2019-03-23T17:40:16.607Z,10.21
2019-03-23T17:42:46.215Z,10.34
2019-03-23T17:45:15.761Z,10.17
2019-03-23T17:47:46.271Z,10.10
2019-03-23T17:50:15.866Z,10.06
2019-03-23T17:52:45.735Z,10.09
2019-03-23T17:55:15.210Z,10.07
2019-03-23T17:57:45.809Z,10.05
2019-03-23T18:00:15.372Z,10.03
2019-03-23T18:02:46.596Z,10.01
2019-03-23T18:05:18.707Z,9.93
2019-03-23T18:07:48.369Z,10.03
2019-03-23T18:10:17.863Z,10.04
2019-03-23T18:12:47.500Z,10.01
2019-03-23T18:15:17.032Z,10.02
2019-03-23T18:17:46.554Z,10.03
2019-03-23T18:20:16.051Z,10.03
2019-03-23T18:22:45.572Z,10.12
2019-03-23T18:25:15.238Z,10.12
2019-03-23T18:27:44.712Z,10.02
2019-03-23T18:30:36.907Z,9.93
2019-03-23T18:33:06.407Z,9.83
2019-03-23T18:35:35.994Z,9.81
2019-03-23T18:38:10.210Z,9.67
2019-03-23T18:40:39.709Z,9.56
2019-03-23T18:43:09.289Z,9.53
2019-03-23T18:45:38.882Z,9.51
2019-03-23T18:48:09.816Z,9.37
2019-03-23T18:50:40.017Z,9.36
2019-03-23T18:53:09.518Z,9.29
2019-03-23T18:55:40.827Z,9.18
2019-03-23T18:58:10.545Z,9.20
2019-03-23T19:00:42.102Z,9.14
2019-03-23T19:03:11.898Z,9.05
2019-03-23T19:05:41.865Z,9.02
2019-03-23T19:08:12.011Z,8.92
2019-03-23T19:10:42.654Z,8.90
2019-03-23T19:13:12.147Z,8.89
2019-03-23T19:15:41.640Z,8.86
2019-03-23T19:18:11.152Z,8.86
2019-03-23T19:20:42.609Z,8.80
2019-03-23T19:23:13.985Z,8.79
2019-03-23T19:25:43.410Z,8.76
2019-03-23T19:28:15.189Z,8.75
2019-03-23T19:30:44.638Z,8.70
2019-03-23T19:33:14.072Z,8.68
2019-03-23T19:35:46.253Z,8.66
2019-03-23T19:38:15.675Z,8.64
2019-03-23T19:40:45.808Z,8.62
2019-03-23T19:43:15.238Z,8.63
2019-03-23T19:45:46.274Z,8.61
2019-03-23T19:48:17.214Z,8.61
2019-03-23T19:50:46.668Z,8.60
2019-03-23T19:53:16.113Z,8.57
2019-03-23T19:55:45.537Z,8.58
2019-03-23T19:58:14.986Z,8.52
2019-03-23T20:00:44.454Z,8.51
2019-03-23T20:03:14.056Z,8.45
2019-03-23T20:05:43.525Z,8.40
2019-03-23T20:08:13.224Z,8.37
2019-03-23T20:10:44.895Z,8.38
2019-03-23T20:13:14.507Z,8.36
2019-03-23T20:15:43.950Z,8.31
2019-03-23T20:18:16.148Z,8.25
2019-03-23T20:20:45.571Z,8.22
2019-03-23T20:23:15.107Z,8.21
2019-03-23T20:25:47.591Z,8.14
2019-03-23T20:28:18.108Z,8.10
2019-03-23T20:30:50.446Z,8.01
2019-03-23T20:33:19.968Z,7.92
2019-03-23T20:35:49.476Z,7.87
2019-03-23T20:38:22.032Z,7.84
2019-03-23T20:40:53.340Z,7.77
2019-03-23T20:43:22.753Z,7.70
2019-03-23T20:45:55.183Z,7.67
2019-03-23T20:48:24.905Z,7.61
2019-03-23T20:50:56.450Z,7.55
2019-03-23T20:53:26.188Z,7.55
2019-03-23T20:55:55.711Z,7.41
2019-03-23T20:58:26.742Z,7.37
2019-03-23T21:00:57.051Z,7.35
2019-03-23T21:03:26.473Z,7.25
2019-03-23T21:05:55.938Z,7.20
2019-03-23T21:08:26.367Z,7.16
2019-03-23T21:10:55.806Z,7.13
2019-03-23T21:13:25.359Z,7.08
2019-03-23T21:15:54.939Z,7.07
2019-03-23T21:18:27.623Z,7.10
2019-03-23T21:20:57.166Z,7.05
2019-03-23T21:23:26.746Z,7.02
2019-03-23T21:25:56.248Z,7.00
2019-03-23T21:28:25.702Z,6.99
2019-03-23T21:30:55.263Z,6.99
2019-03-23T21:33:24.718Z,7.00
2019-03-23T21:35:54.130Z,7.02
2019-03-23T21:38:23.579Z,7.01
2019-03-23T21:40:53.024Z,6.98
2019-03-23T21:43:22.445Z,6.95
2019-03-23T21:45:51.890Z,6.94
2019-03-23T21:48:21.379Z,6.87
2019-03-23T21:50:50.834Z,6.85
2019-03-23T21:53:21.912Z,6.76
2019-03-23T21:55:52.896Z,6.71
2019-03-23T21:58:25.160Z,6.66
2019-03-23T22:00:54.612Z,6.64
2019-03-23T22:03:24.158Z,6.63
2019-03-23T22:05:53.598Z,6.57
2019-03-23T22:08:23.044Z,6.47
2019-03-23T22:10:53.045Z,6.35
2019-03-23T22:13:22.490Z,6.12
2019-03-23T22:15:52.480Z,6.03
2019-03-23T22:18:21.927Z,6.17
2019-03-23T22:20:51.341Z,6.13
2019-03-23T22:23:22.012Z,6.12
2019-03-23T22:25:51.372Z,6.13
2019-03-23T22:28:22.333Z,6.08
2019-03-23T22:30:53.849Z,6.10
2019-03-23T22:33:23.282Z,6.10
2019-03-23T22:35:52.701Z,6.03
2019-03-23T22:38:22.152Z,6.01
2019-03-23T22:40:51.569Z,5.94
2019-03-23T22:43:21.016Z,5.93
2019-03-23T22:45:50.501Z,5.87
2019-03-23T22:48:21.586Z,5.82
2019-03-23T22:50:51.003Z,5.71
2019-03-23T22:53:20.473Z,5.63
2019-03-23T22:55:49.886Z,5.53
2019-03-23T22:58:19.330Z,5.44
2019-03-23T23:00:49.789Z,5.39
2019-03-23T23:03:19.552Z,5.36
2019-03-23T23:05:48.976Z,5.41
2019-03-23T23:08:19.067Z,5.43
2019-03-23T23:10:48.560Z,5.44
2019-03-23T23:13:18.456Z,5.43
2019-03-23T23:15:47.903Z,5.39
2019-03-23T23:18:17.412Z,5.38
2019-03-23T23:20:47.339Z,5.42
2019-03-23T23:23:16.754Z,5.42
2019-03-23T23:25:49.116Z,5.41
2019-03-23T23:28:18.599Z,5.34
2019-03-23T23:30:51.713Z,5.26
2019-03-23T23:33:21.138Z,5.20
2019-03-23T23:35:50.652Z,5.22
2019-03-23T23:38:23.610Z,5.23
2019-03-23T23:40:54.124Z,5.16
2019-03-23T23:43:28.098Z,5.18
2019-03-23T23:45:57.620Z,5.17
2019-03-23T23:48:27.052Z,5.14
2019-03-23T23:50:56.506Z,5.09
2019-03-23T23:53:26.006Z,5.08
2019-03-23T23:55:55.468Z,5.03
2019-03-23T23:58:24.891Z,5.01
